createdAt,value
2022-10-13T09:57:28.329Z,19.20
2022-10-13T10:02:49.109Z,19.38
2022-10-13T10:05:21.718Z,19.95
2022-10-13T10:07:49.212Z,22.65
2022-10-13T10:10:31.790Z,26.08
2022-10-13T10:13:02.547Z,22.88
2022-10-13T10:15:59.207Z,22.17
2022-10-13T10:18:41.067Z,22.05
2022-10-13T10:21:25.467Z,23.65
2022-10-13T10:24:33.724Z,23.20
2022-10-13T10:27:06.284Z,20.13
2022-10-13T10:29:59.672Z,27.92
2022-10-13T10:32:44.120Z,27.48
2022-10-13T10:35:39.232Z,30.25
2022-10-13T10:38:30.275Z,25.42
2022-10-13T10:41:15.056Z,28.10
2022-10-13T10:44:08.277Z,23.35
2022-10-13T10:58:11.073Z,31.08
2022-10-13T11:00:44.260Z,24.00
2022-10-13T11:06:17.657Z,27.25
2022-10-13T11:08:47.178Z,31.55
2022-10-13T11:11:25.082Z,33.83
2022-10-13T11:14:05.035Z,24.38
2022-10-13T11:17:06.344Z,25.30
2022-10-13T11:19:40.723Z,29.33
2022-10-13T11:22:07.799Z,31.05
2022-10-13T11:24:38.797Z,34.40
2022-10-13T11:27:11.813Z,30.85
2022-10-13T11:29:54.803Z,32.08
2022-10-13T11:32:41.268Z,28.80
2022-10-13T11:35:08.383Z,23.75
2022-10-13T11:37:40.941Z,25.10
2022-10-13T11:40:19.835Z,30.83
2022-10-13T11:43:08.400Z,30.60
2022-10-13T11:45:51.326Z,24.35
2022-10-13T11:48:52.976Z,23.17
2022-10-13T11:51:31.160Z,27.55
2022-10-13T11:53:58.169Z,27.38
2022-10-13T11:56:58.409Z,28.75
2022-10-13T11:59:33.996Z,25.48
2022-10-13T12:02:10.200Z,25.23
2022-10-13T12:04:40.590Z,27.48
2022-10-13T12:07:14.397Z,23.70
2022-10-13T12:09:53.659Z,23.65
2022-10-13T12:12:23.745Z,26.58
2022-10-13T12:14:53.799Z,28.38
2022-10-13T12:17:27.581Z,30.88
2022-10-13T12:19:57.284Z,29.52
2022-10-13T12:22:24.966Z,26.90
2022-10-13T12:25:04.720Z,27.88
2022-10-13T12:27:41.172Z,31.20
2022-10-13T12:30:23.545Z,27.10
2022-10-13T12:32:53.301Z,30.77
2022-10-13T12:35:21.547Z,31.40
2022-10-13T12:37:49.450Z,22.67
2022-10-13T12:40:17.897Z,24.42
2022-10-13T12:42:46.153Z,21.63
2022-10-13T12:45:22.071Z,27.25
2022-10-13T12:47:50.964Z,23.85
2022-10-13T12:50:29.847Z,23.42
2022-10-13T12:53:05.839Z,22.15
2022-10-13T12:55:34.486Z,22.45
2022-10-13T12:58:02.991Z,29.38
2022-10-13T13:00:31.128Z,28.10
2022-10-13T13:03:04.133Z,23.52
2022-10-13T13:05:51.628Z,23.25
2022-10-13T13:08:29.954Z,28.65
2022-10-13T13:10:58.768Z,28.40
2022-10-13T13:13:26.241Z,26.30
2022-10-13T13:15:53.635Z,24.13
2022-10-13T13:30:44.627Z,27.83
2022-10-13T13:35:43.803Z,24.98
2022-10-13T13:38:13.516Z,18.92
2022-10-13T13:40:40.655Z,22.60
2022-10-13T13:43:09.262Z,24.95
2022-10-13T13:45:36.459Z,25.77
2022-10-13T13:48:07.077Z,24.08
2022-10-13T13:50:36.434Z,24.20
2022-10-13T13:53:04.718Z,22.20
2022-10-13T13:55:35.760Z,23.58
2022-10-13T13:58:03.859Z,23.23
2022-10-13T14:00:30.835Z,23.13
2022-10-13T14:02:58.164Z,26.77
2022-10-13T14:05:25.342Z,27.10
2022-10-13T14:07:59.438Z,21.65
2022-10-13T14:10:26.772Z,27.52
2022-10-13T14:12:53.774Z,27.30
2022-10-13T14:15:23.413Z,27.30
2022-10-13T14:17:53.917Z,22.75
2022-10-13T14:20:22.041Z,31.38
2022-10-13T14:22:49.219Z,25.05
2022-10-13T14:25:16.803Z,26.05
2022-10-13T14:27:45.830Z,30.67
2022-10-13T14:30:13.540Z,36.78
2022-10-13T14:32:40.487Z,29.60
2022-10-13T14:35:07.890Z,31.20
2022-10-13T14:37:35.411Z,32.38
2022-10-13T14:40:02.700Z,30.20
2022-10-13T14:42:29.726Z,31.70
2022-10-13T14:44:56.692Z,33.22
2022-10-13T14:47:23.929Z,31.65
2022-10-13T14:49:51.024Z,33.40
2022-10-13T14:52:18.014Z,34.63
2022-10-13T14:54:45.326Z,54.67
2022-10-13T14:57:15.903Z,36.63
2022-10-13T14:59:44.486Z,39.45
2022-10-13T15:02:12.096Z,41.45
2022-10-13T15:04:45.366Z,30.98
2022-10-13T15:07:12.266Z,40.42
2022-10-13T15:09:52.324Z,35.38
2022-10-13T15:12:20.536Z,37.45
2022-10-13T15:14:47.804Z,33.22
2022-10-13T15:17:14.752Z,36.45
2022-10-13T15:19:42.110Z,32.30
2022-10-13T15:22:09.081Z,36.38
2022-10-13T15:24:35.995Z,37.53
2022-10-13T15:27:02.954Z,43.22
2022-10-13T15:29:32.248Z,40.25
2022-10-13T15:32:09.520Z,43.63
2022-10-13T15:34:38.975Z,39.05
2022-10-13T15:37:06.613Z,59.90
2022-10-13T15:39:33.856Z,56.33
2022-10-13T15:42:02.360Z,43.05
2022-10-13T15:44:50.931Z,48.25
2022-10-13T15:47:18.363Z,49.00
2022-10-13T15:49:45.359Z,42.90
2022-10-13T15:52:12.478Z,41.65
2022-10-13T15:54:39.574Z,37.95
2022-10-13T15:57:06.481Z,41.85
2022-10-13T15:59:33.434Z,41.20
2022-10-13T16:02:00.495Z,42.95
2022-10-13T16:04:27.418Z,41.88
2022-10-13T16:06:54.338Z,40.05
2022-10-13T16:09:21.249Z,39.47
2022-10-13T16:11:48.193Z,47.42
2022-10-13T16:14:15.240Z,56.30
2022-10-13T16:16:42.321Z,55.72
2022-10-13T16:19:09.375Z,48.00
2022-10-13T16:21:36.391Z,48.72
2022-10-13T16:24:05.683Z,48.88
2022-10-13T16:26:32.863Z,48.97
2022-10-13T16:28:59.822Z,47.83
2022-10-13T16:31:31.103Z,40.20
2022-10-13T16:33:58.279Z,50.05
2022-10-13T16:36:25.415Z,40.60
2022-10-13T16:38:54.936Z,40.70
2022-10-13T16:41:21.925Z,39.30
2022-10-13T16:43:49.062Z,50.97
2022-10-13T16:46:19.517Z,40.88
2022-10-13T16:48:47.982Z,43.70
2022-10-13T16:51:18.310Z,45.38
2022-10-13T16:53:53.326Z,45.10
2022-10-13T16:56:24.135Z,41.90
2022-10-13T16:58:54.411Z,42.42
2022-10-13T17:01:22.672Z,39.42
2022-10-13T17:03:50.781Z,47.67
2022-10-13T17:06:19.909Z,45.05
2022-10-13T17:08:53.263Z,50.88
2022-10-13T17:11:26.030Z,43.90
2022-10-13T17:13:53.230Z,45.17
2022-10-13T17:16:20.812Z,43.20
2022-10-13T17:18:47.798Z,45.85
2022-10-13T17:21:17.427Z,48.65
2022-10-13T17:23:48.619Z,43.33
2022-10-13T17:26:17.806Z,48.72
2022-10-13T17:28:45.545Z,43.55
2022-10-13T17:31:15.698Z,40.33
2022-10-13T17:33:43.866Z,45.55
2022-10-13T17:36:15.796Z,39.63
2022-10-13T17:38:43.691Z,40.22
2022-10-13T17:41:11.361Z,38.78
2022-10-13T17:43:48.013Z,41.72
2022-10-13T17:46:36.195Z,46.33
2022-10-13T17:49:04.263Z,50.08
2022-10-13T17:51:31.634Z,45.03
2022-10-13T17:53:59.990Z,51.75
2022-10-13T17:56:27.642Z,53.22
2022-10-13T17:58:54.901Z,54.70
2022-10-13T18:01:28.427Z,45.92
2022-10-13T18:04:01.304Z,42.88
2022-10-13T18:06:35.159Z,44.90
2022-10-13T18:09:10.433Z,48.05
2022-10-13T18:11:39.262Z,46.45
2022-10-13T18:14:07.159Z,51.72
2022-10-13T18:16:42.469Z,45.78
2022-10-13T18:19:12.815Z,45.45
2022-10-13T18:21:40.044Z,45.33
2022-10-13T18:24:08.631Z,47.85
2022-10-13T18:26:35.850Z,44.38
2022-10-13T18:29:04.476Z,47.67
2022-10-13T18:31:34.355Z,51.78
2022-10-13T18:34:06.662Z,43.50
2022-10-13T18:36:43.128Z,54.72
2022-10-13T18:39:17.311Z,48.30
2022-10-13T18:41:47.539Z,47.22
2022-10-13T18:44:16.450Z,58.72
2022-10-13T18:46:43.699Z,52.13
2022-10-13T18:49:15.227Z,42.72
2022-10-13T18:51:43.650Z,51.53
2022-10-13T18:54:11.421Z,48.15
2022-10-13T18:56:38.477Z,56.75
2022-10-13T18:59:07.315Z,53.42
2022-10-13T19:01:36.688Z,44.25
2022-10-13T19:04:04.174Z,48.47
2022-10-13T19:06:32.764Z,48.38
2022-10-13T19:09:06.145Z,47.28
2022-10-13T19:11:36.713Z,48.92
2022-10-13T19:14:05.931Z,44.67
2022-10-13T19:16:37.148Z,46.03
2022-10-13T19:19:04.881Z,46.72
2022-10-13T19:21:32.811Z,43.33
2022-10-13T19:24:01.068Z,43.75
2022-10-13T19:26:32.358Z,46.15
2022-10-13T19:29:13.476Z,53.22
2022-10-13T19:31:42.529Z,46.83
2022-10-13T19:34:11.893Z,43.53
2022-10-13T19:36:44.051Z,46.80
2022-10-13T19:39:20.424Z,48.05
2022-10-13T19:41:48.495Z,42.85
2022-10-13T19:44:17.743Z,45.35
2022-10-13T19:46:45.943Z,42.65
2022-10-13T19:49:16.560Z,43.78
2022-10-13T19:51:47.123Z,37.42
2022-10-13T19:54:14.556Z,39.17
2022-10-13T19:56:45.293Z,43.92
2022-10-13T19:59:12.268Z,50.25
2022-10-13T20:01:41.114Z,37.15
2022-10-13T20:04:14.447Z,43.30
2022-10-13T20:06:43.604Z,45.08
2022-10-13T20:09:14.151Z,41.85
2022-10-13T20:11:41.491Z,46.13
2022-10-13T20:14:08.437Z,48.05
2022-10-13T20:16:40.955Z,47.22
2022-10-13T20:19:08.370Z,41.65
2022-10-13T20:21:35.663Z,40.47
2022-10-13T20:24:02.844Z,44.47
2022-10-13T20:26:29.744Z,40.60
2022-10-13T20:28:58.245Z,44.95
2022-10-13T20:31:25.956Z,40.53
2022-10-13T20:34:00.034Z,45.28
2022-10-13T20:36:38.493Z,42.55
2022-10-13T20:39:06.865Z,45.22
2022-10-13T20:41:34.292Z,44.92
2022-10-13T20:44:02.342Z,38.70
2022-10-13T20:46:31.364Z,43.50
2022-10-13T20:49:10.321Z,44.22
2022-10-13T20:51:38.415Z,37.13
2022-10-13T20:54:06.156Z,40.00
2022-10-13T20:56:33.215Z,43.67
2022-10-13T20:59:05.853Z,36.55
2022-10-13T21:01:35.638Z,40.42
2022-10-13T21:04:03.737Z,40.20
2022-10-13T21:06:31.272Z,42.70
2022-10-13T21:09:00.450Z,39.92
2022-10-13T21:11:27.766Z,40.75
2022-10-13T21:13:54.883Z,38.20
2022-10-13T21:16:27.885Z,43.25
2022-10-13T21:18:56.864Z,40.90
2022-10-13T21:21:29.291Z,41.92
2022-10-13T21:23:58.826Z,45.17
2022-10-13T21:26:27.573Z,43.38
2022-10-13T21:28:55.894Z,45.47
2022-10-13T21:31:24.452Z,41.83
2022-10-13T21:33:52.039Z,37.13
2022-10-13T21:36:25.262Z,43.28
2022-10-13T21:38:55.407Z,39.47
2022-10-13T21:41:23.282Z,43.25
2022-10-13T21:43:51.572Z,37.30
2022-10-13T21:46:22.017Z,41.67
2022-10-13T21:48:58.619Z,40.75
2022-10-13T21:51:31.450Z,41.60
2022-10-13T21:54:07.793Z,46.87
2022-10-13T21:56:36.213Z,40.50
2022-10-13T21:59:04.771Z,43.22
2022-10-13T22:01:31.907Z,47.00
2022-10-13T22:04:00.909Z,39.10
2022-10-13T22:06:29.699Z,45.03
2022-10-13T22:08:58.134Z,35.67
2022-10-13T22:11:29.400Z,41.88
2022-10-13T22:13:57.466Z,47.80
2022-10-13T22:16:27.517Z,40.20
2022-10-13T22:18:57.138Z,39.90
2022-10-13T22:21:29.780Z,36.95
2022-10-13T22:23:58.525Z,39.33
2022-10-13T22:26:26.555Z,41.65
2022-10-13T22:28:53.604Z,45.80
2022-10-13T22:31:20.565Z,38.95
2022-10-13T22:33:47.951Z,37.30
2022-10-13T22:36:17.305Z,50.75
2022-10-13T22:38:45.719Z,45.35
2022-10-13T22:41:14.645Z,46.15
2022-10-13T22:43:46.611Z,42.22
2022-10-13T22:46:15.562Z,40.58
2022-10-13T22:48:42.910Z,43.72
2022-10-13T22:51:15.013Z,43.83
2022-10-13T22:53:42.287Z,43.10
2022-10-13T22:56:12.098Z,45.13
2022-10-13T22:58:39.082Z,42.58
2022-10-13T23:01:12.861Z,43.75
2022-10-13T23:03:40.474Z,45.23
2022-10-13T23:06:12.480Z,46.88
2022-10-13T23:08:39.507Z,41.58
2022-10-13T23:11:06.576Z,39.83
2022-10-13T23:13:33.637Z,42.13
2022-10-13T23:16:06.463Z,44.28
2022-10-13T23:18:38.092Z,43.80
2022-10-13T23:21:11.642Z,43.50
2022-10-13T23:23:38.703Z,45.75
2022-10-13T23:26:08.320Z,41.78
2022-10-13T23:28:35.702Z,44.28
2022-10-13T23:31:05.590Z,45.10
2022-10-13T23:33:32.947Z,47.30
2022-10-13T23:36:01.646Z,42.85
2022-10-13T23:38:29.917Z,44.45
2022-10-13T23:41:03.834Z,48.70
2022-10-13T23:43:30.773Z,45.42
2022-10-13T23:45:57.757Z,52.08
2022-10-13T23:48:24.761Z,49.88
2022-10-13T23:50:51.719Z,47.97
2022-10-13T23:53:18.700Z,43.10
2022-10-13T23:55:45.748Z,46.85
2022-10-13T23:58:13.480Z,48.28
